sensor_id;sensor_type;location;lat;lon;timestamp;pressure;altitude;pressure_sealevel;temperature;humidity
62011;BME280;47967;51.756;10.174;2023-09-19T04:04:20;99101.91;;;13.94;100.00
62011;BME280;47967;51.756;10.174;2023-09-19T04:08:23;99100.47;;;14.03;100.00
62011;BME280;47967;51.756;10.174;2023-09-19T04:12:25;99100.50;;;14.32;100.00
62011;BME280;47967;51.756;10.174;2023-09-19T04:16:28;99111.13;;;14.34;100.00
62011;BME280;47967;51.756;10.174;2023-09-19T04:20:32;99118.19;;;14.35;100.00
62011;BME280;47967;51.756;10.174;2023-09-19T04:24:35;99123.50;;;14.41;100.00
62011;BME280;47967;51.756;10.174;2023-09-19T04:28:39;99126.69;;;14.38;100.00
62011;BME280;47967;51.756;10.174;2023-09-19T04:32:42;99137.19;;;14.35;100.00
62011;BME280;47967;51.756;10.174;2023-09-19T04:36:46;99139.31;;;14.33;100.00
62011;BME280;47967;51.756;10.174;2023-09-19T04:40:48;99146.66;;;14.32;100.00
62011;BME280;47967;51.756;10.174;2023-09-19T04:44:51;99137.72;;;14.20;100.00
62011;BME280;47967;51.756;10.174;2023-09-19T04:48:54;99138.09;;;14.12;100.00
62011;BME280;47967;51.756;10.174;2023-09-19T04:52:58;99128.88;;;14.24;100.00
62011;BME280;47967;51.756;10.174;2023-09-19T04:57:02;99141.00;;;14.22;100.00
62011;BME280;47967;51.756;10.174;2023-09-19T05:01:07;99142.19;;;14.26;100.00
62011;BME280;47967;51.756;10.174;2023-09-19T05:05:13;99137.94;;;14.18;100.00
62011;BME280;47967;51.756;10.174;2023-09-19T05:09:17;99136.56;;;14.04;100.00
62011;BME280;47967;51.756;10.174;2023-09-19T05:13:21;99155.81;;;13.90;100.00
62011;BME280;47967;51.756;10.174;2023-09-19T05:17:24;99141.66;;;13.88;100.00
62011;BME280;47967;51.756;10.174;2023-09-19T05:21:27;99151.34;;;13.84;100.00
62011;BME280;47967;51.756;10.174;2023-09-19T05:25:33;99158.16;;;13.87;100.00
62011;BME280;47967;51.756;10.174;2023-09-19T05:29:38;99162.03;;;13.79;100.00
62011;BME280;47967;51.756;10.174;2023-09-19T05:33:41;99163.69;;;13.80;100.00
62011;BME280;47967;51.756;10.174;2023-09-19T05:37:44;99177.75;;;13.77;100.00
62011;BME280;47967;51.756;10.174;2023-09-19T05:41:49;99174.69;;;13.73;100.00
62011;BME280;47967;51.756;10.174;2023-09-19T05:45:51;99177.72;;;13.65;100.00
62011;BME280;47967;51.756;10.174;2023-09-19T05:49:54;99175.59;;;13.55;100.00
62011;BME280;47967;51.756;10.174;2023-09-19T05:53:57;99201.28;;;13.53;100.00
62011;BME280;47967;51.756;10.174;2023-09-19T05:58:01;99205.06;;;13.52;100.00
62011;BME280;47967;51.756;10.174;2023-09-19T06:02:05;99211.78;;;13.49;100.00
62011;BME280;47967;51.756;10.174;2023-09-19T06:06:08;99215.56;;;13.60;100.00
62011;BME280;47967;51.756;10.174;2023-09-19T06:10:11;99225.81;;;13.70;100.00
62011;BME280;47967;51.756;10.174;2023-09-19T06:14:15;99236.44;;;13.71;100.00
62011;BME280;47967;51.756;10.174;2023-09-19T06:18:19;99238.09;;;13.84;100.00
62011;BME280;47967;51.756;10.174;2023-09-19T06:22:22;99239.28;;;14.00;100.00
62011;BME280;47967;51.756;10.174;2023-09-19T06:26:25;99242.34;;;13.92;100.00
62011;BME280;47967;51.756;10.174;2023-09-19T06:30:30;99234.31;;;13.85;100.00
62011;BME280;47967;51.756;10.174;2023-09-19T06:34:33;99244.47;;;13.78;100.00
62011;BME280;47967;51.756;10.174;2023-09-19T06:38:36;99256.38;;;13.77;100.00
62011;BME280;47967;51.756;10.174;2023-09-19T06:42:41;99271.22;;;13.86;100.00
62011;BME280;47967;51.756;10.174;2023-09-19T06:46:45;99274.88;;;13.92;100.00
62011;BME280;47967;51.756;10.174;2023-09-19T06:50:52;99276.31;;;14.06;100.00
62011;BME280;47967;51.756;10.174;2023-09-19T06:54:56;99273.47;;;14.37;100.00
62011;BME280;47967;51.756;10.174;2023-09-19T06:58:59;99276.50;;;14.76;100.00
62011;BME280;47967;51.756;10.174;2023-09-19T07:03:08;99277.41;;;14.94;100.00
62011;BME280;47967;51.756;10.174;2023-09-19T07:07:13;99279.38;;;15.10;100.00
62011;BME280;47967;51.756;10.174;2023-09-19T07:11:16;99275.94;;;15.15;100.00
62011;BME280;47967;51.756;10.174;2023-09-19T07:15:19;99275.44;;;15.18;100.00
62011;BME280;47967;51.756;10.174;2023-09-19T07:19:24;99271.44;;;15.37;100.00
62011;BME280;47967;51.756;10.174;2023-09-19T07:23:27;99274.38;;;15.65;100.00
62011;BME280;47967;51.756;10.174;2023-09-19T07:27:31;99271.28;;;15.90;100.00
62011;BME280;47967;51.756;10.174;2023-09-19T07:31:34;99273.84;;;16.14;100.00
62011;BME280;47967;51.756;10.174;2023-09-19T07:35:38;99274.13;;;16.35;100.00
62011;BME280;47967;51.756;10.174;2023-09-19T07:39:42;99275.34;;;16.66;100.00
62011;BME280;47967;51.756;10.174;2023-09-19T07:43:46;99280.94;;;16.76;100.00
62011;BME280;47967;51.756;10.174;2023-09-19T07:47:50;99284.94;;;16.91;100.00
62011;BME280;47967;51.756;10.174;2023-09-19T07:51:54;99285.97;;;17.07;100.00
62011;BME280;47967;51.756;10.174;2023-09-19T07:56:02;99279.78;;;17.11;100.00
62011;BME280;47967;51.756;10.174;2023-09-19T08:00:06;99284.75;;;17.20;100.00
62011;BME280;47967;51.756;10.174;2023-09-19T08:04:12;99296.09;;;17.34;100.00
62011;BME280;47967;51.756;10.174;2023-09-19T08:08:16;99301.59;;;17.39;95.43
62011;BME280;47967;51.756;10.174;2023-09-19T08:12:19;99310.03;;;17.37;94.15
62011;BME280;47967;51.756;10.174;2023-09-19T08:16:25;99317.22;;;17.49;92.23
62011;BME280;47967;51.756;10.174;2023-09-19T08:20:28;99317.50;;;17.47;90.12
62011;BME280;47967;51.756;10.174;2023-09-19T08:24:32;99324.44;;;17.60;90.41
62011;BME280;47967;51.756;10.174;2023-09-19T08:28:36;99326.09;;;17.61;87.60
62011;BME280;47967;51.756;10.174;2023-09-19T08:32:42;99327.53;;;17.69;86.52
62011;BME280;47967;51.756;10.174;2023-09-19T08:36:45;99327.38;;;17.53;86.65
62011;BME280;47967;51.756;10.174;2023-09-19T08:40:50;99321.81;;;17.43;85.57
62011;BME280;47967;51.756;10.174;2023-09-19T08:44:54;99318.84;;;17.44;83.06
62011;BME280;47967;51.756;10.174;2023-09-19T08:49:02;99315.38;;;17.54;87.97
62011;BME280;47967;51.756;10.174;2023-09-19T08:53:11;99321.66;;;17.82;90.06
62011;BME280;47967;51.756;10.174;2023-09-19T08:57:18;99317.53;;;17.80;87.18
62011;BME280;47967;51.756;10.174;2023-09-19T09:01:24;99326.53;;;18.07;89.88
62011;BME280;47967;51.756;10.174;2023-09-19T09:05:30;99329.38;;;18.23;88.27
62011;BME280;47967;51.756;10.174;2023-09-19T09:09:34;99329.41;;;18.28;87.31
62011;BME280;47967;51.756;10.174;2023-09-19T09:13:39;99327.31;;;18.40;87.28
62011;BME280;47967;51.756;10.174;2023-09-19T09:17:43;99326.66;;;18.66;86.67
62011;BME280;47967;51.756;10.174;2023-09-19T09:21:46;99325.56;;;18.62;82.25
62011;BME280;47967;51.756;10.174;2023-09-19T09:25:53;99328.13;;;18.84;82.36
62011;BME280;47967;51.756;10.174;2023-09-19T09:30:07;99333.72;;;19.10;84.98
62011;BME280;47967;51.756;10.174;2023-09-19T09:34:10;99323.72;;;19.41;83.17
62011;BME280;47967;51.756;10.174;2023-09-19T09:38:15;99335.75;;;19.30;80.87
62011;BME280;47967;51.756;10.174;2023-09-19T09:42:31;99333.16;;;19.08;78.46
62011;BME280;47967;51.756;10.174;2023-09-19T09:46:42;99338.78;;;18.85;79.81
62011;BME280;47967;51.756;10.174;2023-09-19T09:51:29;99331.13;;;19.51;81.90
62011;BME280;47967;51.756;10.174;2023-09-19T09:56:00;99341.72;;;19.27;78.00
62011;BME280;47967;51.756;10.174;2023-09-19T10:00:05;99322.88;;;19.30;79.09
62011;BME280;47967;51.756;10.174;2023-09-19T10:04:29;99333.59;;;19.52;79.54
62011;BME280;47967;51.756;10.174;2023-09-19T10:08:38;99337.22;;;19.89;78.26
62011;BME280;47967;51.756;10.174;2023-09-19T10:12:46;99344.03;;;19.71;75.00
62011;BME280;47967;51.756;10.174;2023-09-19T10:16:53;99342.91;;;19.57;79.36
62011;BME280;47967;51.756;10.174;2023-09-19T10:21:04;99348.94;;;19.59;78.59
62011;BME280;47967;51.756;10.174;2023-09-19T10:25:08;99342.25;;;19.24;78.26
62011;BME280;47967;51.756;10.174;2023-09-19T10:29:12;99347.19;;;19.22;77.90
62011;BME280;47967;51.756;10.174;2023-09-19T10:33:17;99355.47;;;19.42;75.76
62011;BME280;47967;51.756;10.174;2023-09-19T10:37:23;99362.84;;;19.47;75.49
62011;BME280;47967;51.756;10.174;2023-09-19T10:41:29;99349.50;;;19.61;74.47
62011;BME280;47967;51.756;10.174;2023-09-19T10:45:35;99335.56;;;19.78;77.51
62011;BME280;47967;51.756;10.174;2023-09-19T10:49:43;99342.44;;;19.91;78.27
62011;BME280;47967;51.756;10.174;2023-09-19T10:53:53;99332.84;;;20.35;75.34
62011;BME280;47967;51.756;10.174;2023-09-19T10:57:56;99330.69;;;20.26;70.99
62011;BME280;47967;51.756;10.174;2023-09-19T11:02:16;99325.69;;;20.49;71.72
62011;BME280;47967;51.756;10.174;2023-09-19T11:06:20;99332.84;;;20.45;69.71
62011;BME280;47967;51.756;10.174;2023-09-19T11:10:47;99332.53;;;20.67;67.63
62011;BME280;47967;51.756;10.174;2023-09-19T11:14:51;99326.78;;;20.58;71.13
62011;BME280;47967;51.756;10.174;2023-09-19T11:18:54;99329.56;;;20.38;66.98
62011;BME280;47967;51.756;10.174;2023-09-19T11:23:22;99334.22;;;20.27;66.63
62011;BME280;47967;51.756;10.174;2023-09-19T11:27:29;99325.69;;;20.64;63.59
62011;BME280;47967;51.756;10.174;2023-09-19T11:31:44;99330.09;;;20.60;63.44
62011;BME280;47967;51.756;10.174;2023-09-19T11:36:03;99342.44;;;20.27;61.14
62011;BME280;47967;51.756;10.174;2023-09-19T11:40:07;99328.72;;;20.32;62.35
62011;BME280;47967;51.756;10.174;2023-09-19T11:44:34;99338.59;;;20.38;62.66
62011;BME280;47967;51.756;10.174;2023-09-19T11:48:40;99333.94;;;20.28;61.36
62011;BME280;47967;51.756;10.174;2023-09-19T11:52:45;99334.78;;;20.29;61.46
62011;BME280;47967;51.756;10.174;2023-09-19T11:56:50;99333.94;;;20.39;62.12
62011;BME280;47967;51.756;10.174;2023-09-19T12:00:58;99330.41;;;20.28;62.64
62011;BME280;47967;51.756;10.174;2023-09-19T12:05:06;99344.09;;;20.43;59.48
62011;BME280;47967;51.756;10.174;2023-09-19T12:09:12;99326.53;;;20.44;60.39
62011;BME280;47967;51.756;10.174;2023-09-19T12:13:18;99320.19;;;20.54;59.54
62011;BME280;47967;51.756;10.174;2023-09-19T12:17:23;99310.63;;;21.27;59.03
62011;BME280;47967;51.756;10.174;2023-09-19T12:21:27;99309.63;;;21.13;55.79
62011;BME280;47967;51.756;10.174;2023-09-19T12:25:41;99309.06;;;21.16;57.86
62011;BME280;47967;51.756;10.174;2023-09-19T12:29:46;99306.03;;;21.68;58.57
62011;BME280;47967;51.756;10.174;2023-09-19T12:33:54;99313.34;;;21.38;57.33
62011;BME280;47967;51.756;10.174;2023-09-19T12:37:57;99319.88;;;21.47;55.19
62011;BME280;47967;51.756;10.174;2023-09-19T12:42:00;99317.31;;;21.66;57.09
62011;BME280;47967;51.756;10.174;2023-09-19T12:46:05;99303.81;;;21.20;53.10
62011;BME280;47967;51.756;10.174;2023-09-19T12:50:11;99307.25;;;20.96;54.68
62011;BME280;47967;51.756;10.174;2023-09-19T12:54:18;99313.13;;;21.29;54.24
62011;BME280;47967;51.756;10.174;2023-09-19T12:58:21;99314.69;;;20.85;51.55
62011;BME280;47967;51.756;10.174;2023-09-19T13:02:24;99323.09;;;21.04;54.15
62011;BME280;47967;51.756;10.174;2023-09-19T13:06:36;99307.22;;;21.01;53.02
62011;BME280;47967;51.756;10.174;2023-09-19T13:11:05;99306.03;;;21.18;58.02
62011;BME280;47967;51.756;10.174;2023-09-19T13:15:12;99300.63;;;21.02;54.23
62011;BME280;47967;51.756;10.174;2023-09-19T13:19:36;99310.94;;;21.26;55.91
62011;BME280;47967;51.756;10.174;2023-09-19T13:23:41;99301.06;;;21.25;53.31
62011;BME280;47967;51.756;10.174;2023-09-19T13:27:46;99292.19;;;21.43;51.29
62011;BME280;47967;51.756;10.174;2023-09-19T13:31:51;99291.81;;;21.55;52.21
62011;BME280;47967;51.756;10.174;2023-09-19T13:35:55;99277.31;;;21.89;53.24
62011;BME280;47967;51.756;10.174;2023-09-19T13:39:59;99281.75;;;21.85;51.33
62011;BME280;47967;51.756;10.174;2023-09-19T13:44:02;99280.19;;;22.09;49.66
62011;BME280;47967;51.756;10.174;2023-09-19T13:48:06;99274.75;;;21.98;50.34
62011;BME280;47967;51.756;10.174;2023-09-19T13:52:09;99277.97;;;21.76;52.82
62011;BME280;47967;51.756;10.174;2023-09-19T13:56:15;99278.09;;;21.61;52.83
62011;BME280;47967;51.756;10.174;2023-09-19T14:00:18;99284.50;;;21.85;51.04
62011;BME280;47967;51.756;10.174;2023-09-19T14:04:21;99282.09;;;21.73;51.47
62011;BME280;47967;51.756;10.174;2023-09-19T14:08:24;99277.03;;;21.51;52.55
62011;BME280;47967;51.756;10.174;2023-09-19T14:12:28;99267.06;;;21.66;52.51
62011;BME280;47967;51.756;10.174;2023-09-19T14:16:32;99271.31;;;21.87;51.94
62011;BME280;47967;51.756;10.174;2023-09-19T14:20:38;99261.94;;;21.88;53.32
62011;BME280;47967;51.756;10.174;2023-09-19T14:24:40;99252.31;;;21.56;53.82
62011;BME280;47967;51.756;10.174;2023-09-19T14:28:45;99265.63;;;21.28;53.27
62011;BME280;47967;51.756;10.174;2023-09-19T14:32:47;99253.75;;;21.83;53.75
62011;BME280;47967;51.756;10.174;2023-09-19T14:36:50;99267.00;;;21.31;53.40
62011;BME280;47967;51.756;10.174;2023-09-19T14:40:59;99255.31;;;21.60;54.63
62011;BME280;47967;51.756;10.174;2023-09-19T14:45:05;99259.78;;;21.85;53.16
62011;BME280;47967;51.756;10.174;2023-09-19T14:49:08;99259.66;;;22.01;52.94
62011;BME280;47967;51.756;10.174;2023-09-19T14:53:11;99265.75;;;22.51;52.16
62011;BME280;47967;51.756;10.174;2023-09-19T14:57:14;99248.69;;;22.54;51.08
62011;BME280;47967;51.756;10.174;2023-09-19T15:01:18;99259.84;;;22.39;51.15
62011;BME280;47967;51.756;10.174;2023-09-19T15:05:21;99258.16;;;22.67;51.49
62011;BME280;47967;51.756;10.174;2023-09-19T15:09:24;99260.91;;;22.14;53.19
62011;BME280;47967;51.756;10.174;2023-09-19T15:13:27;99258.94;;;21.85;53.84
62011;BME280;47967;51.756;10.174;2023-09-19T15:17:32;99256.00;;;21.76;54.66
62011;BME280;47967;51.756;10.174;2023-09-19T15:21:35;99251.63;;;21.35;56.97
62011;BME280;47967;51.756;10.174;2023-09-19T15:25:38;99260.97;;;20.79;57.00
62011;BME280;47967;51.756;10.174;2023-09-19T15:29:42;99265.13;;;20.51;57.86
62011;BME280;47967;51.756;10.174;2023-09-19T15:33:46;99267.13;;;20.24;59.30
62011;BME280;47967;51.756;10.174;2023-09-19T15:37:49;99267.69;;;20.06;58.44
62011;BME280;47967;51.756;10.174;2023-09-19T15:41:52;99266.88;;;19.84;60.10
62011;BME280;47967;51.756;10.174;2023-09-19T15:45:55;99271.78;;;19.62;60.77
62011;BME280;47967;51.756;10.174;2023-09-19T15:49:59;99267.94;;;19.63;62.15
62011;BME280;47967;51.756;10.174;2023-09-19T15:54:07;99270.69;;;19.63;63.56
62011;BME280;47967;51.756;10.174;2023-09-19T15:58:10;99262.75;;;19.72;62.82
62011;BME280;47967;51.756;10.174;2023-09-19T16:02:13;99260.00;;;19.56;62.00
62011;BME280;47967;51.756;10.174;2023-09-19T16:06:18;99257.56;;;19.75;61.79
62011;BME280;47967;51.756;10.174;2023-09-19T16:10:21;99253.38;;;20.35;60.65
62011;BME280;47967;51.756;10.174;2023-09-19T16:14:24;99251.69;;;20.59;57.67
62011;BME280;47967;51.756;10.174;2023-09-19T16:18:28;99255.75;;;20.67;57.09
62011;BME280;47967;51.756;10.174;2023-09-19T16:22:34;99263.69;;;20.84;56.96
62011;BME280;47967;51.756;10.174;2023-09-19T16:26:37;99273.84;;;20.84;56.56
62011;BME280;47967;51.756;10.174;2023-09-19T16:30:40;99269.41;;;20.93;56.06
62011;BME280;47967;51.756;10.174;2023-09-19T16:34:42;99279.84;;;20.86;56.63
62011;BME280;47967;51.756;10.174;2023-09-19T16:38:47;99267.84;;;20.61;56.90
62011;BME280;47967;51.756;10.174;2023-09-19T16:42:51;99275.00;;;20.46;58.35
62011;BME280;47967;51.756;10.174;2023-09-19T16:46:56;99282.22;;;20.17;59.67
62011;BME280;47967;51.756;10.174;2023-09-19T16:51:00;99284.38;;;19.68;62.14
62011;BME280;47967;51.756;10.174;2023-09-19T16:55:06;99281.03;;;19.40;62.90
62011;BME280;47967;51.756;10.174;2023-09-19T16:59:08;99283.44;;;19.16;64.68
62011;BME280;47967;51.756;10.174;2023-09-19T17:03:12;99287.25;;;19.04;65.33
62011;BME280;47967;51.756;10.174;2023-09-19T17:07:15;99297.31;;;18.94;68.21
62011;BME280;47967;51.756;10.174;2023-09-19T17:11:20;99294.75;;;18.82;69.56
62011;BME280;47967;51.756;10.174;2023-09-19T17:15:25;99298.28;;;18.72;69.82
62011;BME280;47967;51.756;10.174;2023-09-19T17:19:28;99296.31;;;18.67;69.45
62011;BME280;47967;51.756;10.174;2023-09-19T17:23:31;99298.25;;;18.67;68.02
62011;BME280;47967;51.756;10.174;2023-09-19T17:27:36;99302.31;;;18.59;68.26
62011;BME280;47967;51.756;10.174;2023-09-19T17:31:39;99299.59;;;18.59;68.08
62011;BME280;47967;51.756;10.174;2023-09-19T17:35:42;99292.69;;;18.51;69.33
62011;BME280;47967;51.756;10.174;2023-09-19T17:39:45;99300.34;;;18.49;68.70
62011;BME280;47967;51.756;10.174;2023-09-19T17:43:53;99296.47;;;18.45;68.87
62011;BME280;47967;51.756;10.174;2023-09-19T17:47:56;99295.88;;;18.33;69.52
62011;BME280;47967;51.756;10.174;2023-09-19T17:52:00;99287.91;;;18.26;69.80
62011;BME280;47967;51.756;10.174;2023-09-19T17:56:04;99300.09;;;18.13;70.88
62011;BME280;47967;51.756;10.174;2023-09-19T18:00:08;99280.88;;;17.98;70.58
62011;BME280;47967;51.756;10.174;2023-09-19T18:04:12;99281.22;;;17.79;72.41
62011;BME280;47967;51.756;10.174;2023-09-19T18:08:15;99286.94;;;17.72;72.40
62011;BME280;47967;51.756;10.174;2023-09-19T18:12:18;99295.72;;;17.52;74.44
62011;BME280;47967;51.756;10.174;2023-09-19T18:16:22;99299.38;;;17.36;76.62
62011;BME280;47967;51.756;10.174;2023-09-19T18:20:26;99305.38;;;17.10;81.91
62011;BME280;47967;51.756;10.174;2023-09-19T18:24:29;99307.47;;;17.03;82.43
62011;BME280;47967;51.756;10.174;2023-09-19T18:28:33;99309.69;;;16.89;85.42
62011;BME280;47967;51.756;10.174;2023-09-19T18:32:39;99305.78;;;16.58;88.12
62011;BME280;47967;51.756;10.174;2023-09-19T18:36:41;99320.25;;;16.63;88.99
62011;BME280;47967;51.756;10.174;2023-09-19T18:40:44;99330.78;;;16.77;86.93
62011;BME280;47967;51.756;10.174;2023-09-19T18:44:47;99317.97;;;16.72;88.12
62011;BME280;47967;51.756;10.174;2023-09-19T18:48:52;99326.50;;;16.59;86.29
62011;BME280;47967;51.756;10.174;2023-09-19T18:52:56;99323.59;;;16.48;91.32
62011;BME280;47967;51.756;10.174;2023-09-19T18:56:59;99318.09;;;16.43;90.90
62011;BME280;47967;51.756;10.174;2023-09-19T19:01:03;99326.09;;;16.33;89.30
62011;BME280;47967;51.756;10.174;2023-09-19T19:05:08;99331.31;;;16.17;91.67
62011;BME280;47967;51.756;10.174;2023-09-19T19:09:12;99328.22;;;15.80;99.60
62011;BME280;47967;51.756;10.174;2023-09-19T19:13:15;99331.03;;;15.56;100.00
62011;BME280;47967;51.756;10.174;2023-09-19T19:17:17;99331.13;;;15.44;100.00
62011;BME280;47967;51.756;10.174;2023-09-19T19:21:24;99331.06;;;15.27;100.00
62011;BME280;47967;51.756;10.174;2023-09-19T19:25:27;99328.31;;;14.98;100.00
62011;BME280;47967;51.756;10.174;2023-09-19T19:29:30;99322.16;;;14.91;100.00
62011;BME280;47967;51.756;10.174;2023-09-19T19:33:32;99330.47;;;14.84;100.00
62011;BME280;47967;51.756;10.174;2023-09-19T19:37:37;99328.94;;;14.53;100.00
62011;BME280;47967;51.756;10.174;2023-09-19T19:41:40;99329.75;;;14.53;100.00
62011;BME280;47967;51.756;10.174;2023-09-19T19:45:53;99329.63;;;14.48;100.00
62011;BME280;47967;51.756;10.174;2023-09-19T19:49:56;99330.94;;;14.46;100.00
62011;BME280;47967;51.756;10.174;2023-09-19T19:54:02;99334.47;;;14.46;100.00
62011;BME280;47967;51.756;10.174;2023-09-19T19:58:05;99332.00;;;14.45;100.00
62011;BME280;47967;51.756;10.174;2023-09-19T20:02:09;99334.97;;;14.43;100.00
62011;BME280;47967;51.756;10.174;2023-09-19T20:06:14;99336.22;;;14.64;100.00
62011;BME280;47967;51.756;10.174;2023-09-19T20:10:20;99328.22;;;14.57;100.00
62011;BME280;47967;51.756;10.174;2023-09-19T20:14:23;99347.22;;;14.57;100.00
62011;BME280;47967;51.756;10.174;2023-09-19T20:18:26;99347.38;;;14.75;100.00
62011;BME280;47967;51.756;10.174;2023-09-19T20:22:29;99336.47;;;14.86;100.00
62011;BME280;47967;51.756;10.174;2023-09-19T20:26:35;99341.28;;;14.96;100.00
62011;BME280;47967;51.756;10.174;2023-09-19T20:30:39;99343.19;;;14.96;100.00
62011;BME280;47967;51.756;10.174;2023-09-19T20:34:43;99343.19;;;14.96;100.00
62011;BME280;47967;51.756;10.174;2023-09-19T20:38:46;99325.91;;;15.14;100.00
62011;BME280;47967;51.756;10.174;2023-09-19T20:42:51;99330.38;;;15.20;100.00
62011;BME280;47967;51.756;10.174;2023-09-19T20:46:55;99337.06;;;15.29;100.00
62011;BME280;47967;51.756;10.174;2023-09-19T20:51:04;99331.94;;;15.45;99.39
